Dagus Mines, PA (15831)

11:50 AM EST on February 28, 2015 (GMT -0500)
APRSWXNET Saint Marys PA US | Change Station
CLOSE
Current Station
Personal Weather Station
Location: Saint Marys, PA
Elevation: 1580 ft
Nearby Weather Stations
Active Advisory: Winter Storm Watch Active Notice: Public Information Statement

Elev 1580 ft 41.42 °N, 78.58 °W | Updated 37 minutes ago

Clear
Clear
17 °F
Feels Like 17 °F
N
1
Wind Variable Wind from East
Gusts 0.0 mph

Today
High -- | Low -- °F
--% Chance of Precip.
Yesterday
High -- | Low -- °F
Precip. -- in
6:50 AM 6:03 PM
Waxing Gibbous, 78% visible
Pressure 30.81 in
Visibility 10.0 miles
Clouds Clear
Windchill 17 °F
Dew Point -3 °F
Humidity 41%
Rainfall -999.00 in
Snow Depth Not available.
UV 4 out of 12
Pollen .40 out of 12
Air Quality Not available.
Flu Activity Not available.
METAR KDUJ 281553Z AUTO 00000KT 10SM CLR M10/M20 A3068 RMK AO2 SLP431 T11001200

More Conditions Fewer Conditions

Pressure 30.81 in
Visibility 10.0 miles
Clouds Clear
Windchill 17 °F
Dew Point -3 °F
Humidity 41%
Rainfall -999.00 in
Snow Depth Not available.
UV 4 out of 12
Pollen .40 out of 12
Air Quality Not available.
Flu Activity Not available.
METAR KDUJ 281553Z AUTO 00000KT 10SM CLR M10/M20 A3068 RMK AO2 SLP431 T11001200

More Conditions Fewer Conditions

10-Day Weather Forecast

Almanac

Astronomy

Feb. 28, 2015 Rise Set
Actual Time
Civil Twilight
Nautical Twilight
Astronomical Twilight
Moon
Length of Visible Light
Length of Day
Tomorrow will be .
, % of the Moon is Illuminated

Today's Extremes

State Highs State Lows

Community

WunderPhotos

Upload Photos

1,801,081 photos uploaded!

WunderBlogs® & News

Nearby

Air Quality

  Air Quality AQ Index Pollutant
Not available.

Snow Depth

Station Depth Elevation

Earthquake Activity

City Distance Mag. Time & Date
Minimum magnitude displayed is 2.5.

Coastal Water Temperatures

Place Temperature

Nearby Weather Stations

Winter Storm Watch
Statement as of 6:18 AM EST on February 28, 2015

... Winter Storm Watch remains in effect from late tonight through
Monday morning...

* locations... the northwest mountains.

* Hazard types... snow.

* Accumulations... 6 to 8 inches possible.

* Timing... light snow will overspread the region during the
early morning hours Sunday and become steadier and heavier
Sunday afternoon and night.

* Impacts... hazardous travel from snow covered roads and poor
visibility at times.


Precautionary/preparedness actions...

A Winter Storm Watch means there is a potential for significant
snow... sleet... or ice accumulations that may impact travel. Stay
tuned to NOAA Weather Radio or your favorite source of weather
information for the latest updates. Additional details can also
be found at... weather.Gov/statecollege.